Time;durP1;ratioP1;P1;durP2;ratioP2;P2;SDS_P1;SDS_P2;PMS_P1;PMS_P2;Temp;Humidity;BMP_temperature;BMP_pressure;BME280_temperature;BME280_humidity;BME280_pressure;Samples;Min_cycle;Max_cycle;Signal;HPM_P1;HPM_P2
2023/02/27 00:00:36;;;;;;;71.67;3.17;;;-1.50;99.90;;;;;;4995713;28;20451;-72
2023/02/27 00:03:02;;;;;;;73.57;3.30;;;-1.50;99.90;;;;;;5001327;28;20195;-73
2023/02/27 00:05:27;;;;;;;72.97;3.03;;;-1.50;99.90;;;;;;5006079;28;20225;-72
2023/02/27 00:07:53;;;;;;;71.87;3.00;;;-1.50;99.90;;;;;;4994361;28;20223;-72
2023/02/27 00:10:19;;;;;;;75.30;3.07;;;-1.50;99.90;;;;;;4992323;28;20199;-72
2023/02/27 00:12:44;;;;;;;73.67;3.30;;;-1.50;99.90;;;;;;4995318;28;20221;-71
2023/02/27 00:15:14;;;;;;;74.57;3.43;;;-1.60;99.90;;;;;;4991377;28;20516;-72
2023/02/27 00:17:40;;;;;;;72.90;3.10;;;-1.60;99.90;;;;;;4995228;28;20223;-72
2023/02/27 00:20:09;;;;;;;72.50;3.30;;;-1.60;99.90;;;;;;4992458;28;20536;-72
2023/02/27 00:22:35;;;;;;;72.17;3.20;;;-1.60;99.90;;;;;;5001109;28;20253;-72
2023/02/27 00:25:01;;;;;;;71.20;3.10;;;-1.60;99.90;;;;;;4993410;28;20452;-72
2023/02/27 00:27:26;;;;;;;71.10;3.07;;;-1.60;99.90;;;;;;4994010;28;20588;-73
2023/02/27 00:29:52;;;;;;;75.10;3.10;;;-1.60;99.90;;;;;;4997301;28;20207;-72
2023/02/27 00:32:17;;;;;;;72.17;3.10;;;-1.60;99.90;;;;;;4998387;28;20237;-73
2023/02/27 00:34:43;;;;;;;72.73;3.00;;;-1.60;99.90;;;;;;4999626;28;20704;-72
2023/02/27 00:37:08;;;;;;;120.63;64.60;;;-1.60;99.90;;;;;;4991051;28;20215;-72
2023/02/27 00:39:34;;;;;;;73.10;3.10;;;-1.60;99.90;;;;;;4993964;28;20190;-72
2023/02/27 00:41:59;;;;;;;75.17;3.43;;;-1.60;99.90;;;;;;4992251;28;20211;-72
2023/02/27 00:44:25;;;;;;;71.57;3.00;;;-1.60;99.90;;;;;;4995957;28;20189;-73
2023/02/27 00:46:50;;;;;;;71.50;2.90;;;-1.60;99.90;;;;;;4995338;28;20188;-71
2023/02/27 00:49:16;;;;;;;76.67;3.67;;;-1.70;99.90;;;;;;4992943;28;20185;-72
2023/02/27 00:51:41;;;;;;;74.70;3.40;;;-1.70;99.90;;;;;;4994685;28;20203;-72
2023/02/27 00:54:08;;;;;;;71.67;3.20;;;-1.70;99.90;;;;;;4990711;28;20251;-72
2023/02/27 00:56:34;;;;;;;74.50;3.17;;;-1.70;99.90;;;;;;4999678;28;20563;-72
2023/02/27 00:58:59;;;;;;;73.17;2.90;;;-1.70;99.90;;;;;;5001892;28;20440;-72
2023/02/27 01:01:25;;;;;;;74.63;3.50;;;-1.70;99.90;;;;;;5007859;28;20214;-73
2023/02/27 01:03:50;;;;;;;71.90;3.20;;;-1.70;99.90;;;;;;5010662;28;20535;-70
2023/02/27 01:06:16;;;;;;;71.43;3.30;;;-1.70;99.90;;;;;;4991635;28;20190;-73
2023/02/27 01:08:41;;;;;;;76.50;3.30;;;-1.70;99.90;;;;;;4992788;28;20274;-73
2023/02/27 01:11:07;;;;;;;76.47;3.50;;;-1.70;99.90;;;;;;4992542;28;20222;-72
2023/02/27 01:13:32;;;;;;;73.03;2.73;;;-1.70;99.90;;;;;;4990809;28;20546;-71
2023/02/27 01:15:58;;;;;;;71.57;2.97;;;-1.70;99.90;;;;;;4992327;28;20211;-72
2023/02/27 01:18:23;;;;;;;72.77;3.20;;;-1.70;99.90;;;;;;4994453;28;20198;-72
2023/02/27 01:20:53;;;;;;;72.37;3.00;;;-1.70;99.90;;;;;;4999344;28;20230;-72
2023/02/27 01:23:19;;;;;;;71.70;3.37;;;-1.70;99.90;;;;;;5006909;28;20535;-72
2023/02/27 01:25:46;;;;;;;71.00;3.40;;;-1.70;99.90;;;;;;4991671;28;20429;-72
2023/02/27 01:28:12;;;;;;;70.10;3.10;;;-1.70;99.90;;;;;;4993100;28;20234;-72
2023/02/27 01:30:37;;;;;;;71.47;3.10;;;-1.70;99.90;;;;;;4998365;28;20799;-72
2023/02/27 01:33:03;;;;;;;76.90;3.20;;;-1.70;99.90;;;;;;4999005;28;20542;-72
2023/02/27 01:35:28;;;;;;;71.30;3.37;;;-1.70;99.90;;;;;;5001306;28;20190;-72
2023/02/27 01:37:54;;;;;;;70.20;3.20;;;-1.70;99.90;;;;;;5006975;28;20229;-72
2023/02/27 01:40:19;;;;;;;72.20;3.07;;;-1.70;99.90;;;;;;4992229;28;20346;-72
2023/02/27 01:42:46;;;;;;;71.73;2.80;;;-1.70;99.90;;;;;;5006452;28;20226;-72
2023/02/27 01:45:11;;;;;;;70.80;3.23;;;-1.80;99.90;;;;;;4999998;28;23373;-72
2023/02/27 01:47:52;;;;;;;71.07;3.00;;;-1.80;99.90;;;;;;4997348;28;20433;-72
2023/02/27 01:50:19;;;;;;;70.87;3.17;;;-1.80;99.90;;;;;;5002462;28;20198;-72
2023/02/27 01:52:51;;;;;;;70.30;3.27;;;-1.80;99.90;;;;;;4993004;28;20425;-72
2023/02/27 01:55:18;;;;;;;70.77;3.27;;;-1.80;99.90;;;;;;4999294;28;20510;-71
2023/02/27 01:57:46;;;;;;;70.07;2.97;;;-1.80;99.90;;;;;;4992279;28;20529;-73
2023/02/27 03:31:19;;;;;;;73.00;4.40;;;-2.00;99.90;;;;;;5912237;22;20500;-70
2023/02/27 03:33:52;;;;;;;73.07;4.17;;;-2.00;99.90;;;;;;4982331;28;20969;-73
2023/02/27 03:36:42;;;;;;;76.30;3.73;;;-2.00;99.90;;;;;;4972834;28;20410;-71
2023/02/27 03:39:25;;;;;;;75.73;3.50;;;-2.00;99.90;;;;;;4973372;28;20438;-73
2023/02/27 03:42:00;;;;;;;74.57;3.70;;;-2.00;99.90;;;;;;4973193;28;20477;-73
2023/02/27 03:44:32;;;;;;;71.47;3.60;;;-2.00;99.90;;;;;;4961728;28;20413;-73
2023/02/27 03:46:58;;;;;;;71.27;3.60;;;-2.00;99.90;;;;;;4973383;28;20420;-73
2023/02/27 03:49:24;;;;;;;71.47;3.30;;;-2.00;99.90;;;;;;4969735;28;20437;-73
2023/02/27 03:51:49;;;;;;;71.07;3.40;;;-2.00;99.90;;;;;;4973210;28;20605;-73
2023/02/27 03:54:20;;;;;;;71.50;3.23;;;-2.00;99.90;;;;;;4970302;28;20195;-73
2023/02/27 03:57:05;;;;;;;72.70;3.47;;;-2.00;99.90;;;;;;4971644;28;20675;-74
2023/02/27 03:59:32;;;;;;;75.83;3.70;;;-2.00;99.90;;;;;;4971242;28;20534;-73
2023/02/27 04:02:00;;;;;;;77.40;3.90;;;-2.00;99.90;;;;;;4973021;28;20650;-73
2023/02/27 04:04:27;;;;;;;71.67;3.40;;;-2.00;99.90;;;;;;4971946;28;20437;-73
2023/02/27 04:07:23;;;;;;;83.80;3.80;;;-2.00;99.90;;;;;;4972815;28;20766;-73
2023/02/27 04:10:12;;;;;;;70.80;3.47;;;-2.00;99.90;;;;;;4963325;28;20958;-73
2023/02/27 04:13:06;;;;;;;71.17;3.80;;;-2.00;99.90;;;;;;4972689;28;20531;-73
2023/02/27 04:15:51;;;;;;;74.10;3.77;;;-2.10;99.90;;;;;;4958887;28;20415;-73
2023/02/27 04:18:33;;;;;;;71.27;4.63;;;-2.10;99.90;;;;;;4964862;28;20958;-73
2023/02/27 04:21:29;;;;;;;70.20;3.27;;;-2.10;99.90;;;;;;4972342;28;20469;-73
2023/02/27 04:24:20;;;;;;;74.20;3.77;;;-2.10;99.90;;;;;;4964829;28;20439;-73
2023/02/27 04:26:55;;;;;;;70.37;3.73;;;-2.10;99.90;;;;;;4959299;28;20422;-73
2023/02/27 04:29:43;;;;;;;72.43;3.93;;;-2.10;99.90;;;;;;4972056;28;20432;-72
2023/02/27 04:32:43;;;;;;;70.20;3.50;;;-2.10;99.90;;;;;;4972711;28;20455;-73
2023/02/27 04:35:16;;;;;;;71.60;3.30;;;-2.20;99.90;;;;;;4968953;28;20836;-73
2023/02/27 04:37:57;;;;;;;73.90;3.83;;;-2.20;99.90;;;;;;4970996;28;21005;-73
2023/02/27 04:40:35;;;;;;;73.90;3.77;;;-2.20;99.90;;;;;;4971936;28;21044;-72
2023/02/27 04:43:03;;;;;;;71.10;3.73;;;-2.20;99.90;;;;;;4969317;28;20433;-73
2023/02/27 04:45:32;;;;;;;72.60;3.90;;;-2.20;99.90;;;;;;4973397;28;20534;-73
2023/02/27 04:48:12;;;;;;;71.10;3.53;;;-2.20;99.90;;;;;;4970321;28;20441;-73
2023/02/27 04:50:44;;;;;;;70.30;3.60;;;-2.20;99.90;;;;;;4967277;28;20460;-74
2023/02/27 04:53:26;;;;;;;71.37;4.23;;;-2.20;99.90;;;;;;4969154;28;20411;-72
2023/02/27 04:56:09;;;;;;;75.47;3.60;;;-2.20;99.90;;;;;;4973103;28;20431;-73
2023/02/27 04:58:43;;;;;;;72.57;3.50;;;-2.20;99.90;;;;;;4954783;28;20498;-72
2023/02/27 05:01:24;;;;;;;74.03;4.30;;;-2.20;99.90;;;;;;4972032;28;20537;-74
2023/02/27 05:03:53;;;;;;;70.90;3.57;;;-2.20;99.90;;;;;;4964299;28;20439;-73
2023/02/27 05:06:23;;;;;;;72.57;3.37;;;-2.20;99.90;;;;;;4971960;28;20434;-73
2023/02/27 05:09:00;;;;;;;69.90;3.37;;;-2.20;99.90;;;;;;4964192;28;20774;-73
2023/02/27 05:11:33;;;;;;;69.33;3.53;;;-2.30;99.90;;;;;;4971912;28;20817;-73
2023/02/27 05:14:09;;;;;;;72.10;3.80;;;-2.20;99.90;;;;;;4964636;28;20478;-73
2023/02/27 05:16:47;;;;;;;72.17;4.40;;;-2.20;99.90;;;;;;4957613;28;20455;-72
2023/02/27 05:19:12;;;;;;;71.33;3.53;;;-2.30;99.90;;;;;;4965130;28;20442;-73
2023/02/27 05:21:50;;;;;;;74.97;4.23;;;-2.30;99.90;;;;;;4971588;28;20464;-73
2023/02/27 05:24:44;;;;;;;68.10;3.40;;;-2.30;99.90;;;;;;4965306;28;20274;-73
2023/02/27 05:27:39;;;;;;;74.17;5.20;;;-2.20;99.90;;;;;;4969329;28;21177;-73
2023/02/27 05:30:18;;;;;;;70.07;3.80;;;-2.20;99.90;;;;;;4964717;28;20457;-71
2023/02/27 05:33:00;;;;;;;70.60;4.13;;;-2.30;99.90;;;;;;4957163;28;20431;-72
2023/02/27 05:35:25;;;;;;;71.60;4.10;;;-2.30;99.90;;;;;;4969668;28;20982;-72
2023/02/27 05:38:01;;;;;;;73.37;3.57;;;-2.30;99.90;;;;;;4969071;28;20468;-73
2023/02/27 05:40:35;;;;;;;72.30;3.80;;;-2.30;99.90;;;;;;4970693;28;20266;-73
2023/02/27 05:43:13;;;;;;;76.23;3.60;;;-2.30;99.90;;;;;;4968571;28;20418;-72
2023/02/27 05:45:44;;;;;;;74.40;4.30;;;-2.30;99.90;;;;;;4958165;28;20837;-72
2023/02/27 05:48:26;;;;;;;74.70;5.43;;;-2.30;99.90;;;;;;4968315;28;20437;-71
2023/02/27 05:50:53;;;;;;;84.30;5.17;;;-2.30;99.90;;;;;;4971549;28;20496;-72
2023/02/27 05:53:23;;;;;;;80.73;5.87;;;-2.30;99.90;;;;;;4969238;28;20422;-72
2023/02/27 05:55:57;;;;;;;81.70;5.80;;;-2.20;99.90;;;;;;4970518;28;20405;-72
2023/02/27 05:58:30;;;;;;;79.67;6.20;;;-2.20;99.90;;;;;;4970175;28;20534;-71
2023/02/27 06:01:01;;;;;;;79.30;5.80;;;-2.20;99.90;;;;;;4975033;28;20970;-71
2023/02/27 06:03:28;;;;;;;79.80;5.50;;;-2.10;99.90;;;;;;4968848;28;20470;-71
2023/02/27 06:05:57;;;;;;;79.93;5.80;;;-2.20;99.90;;;;;;4975258;28;20426;-71
2023/02/27 06:08:23;;;;;;;78.20;5.50;;;-2.20;99.90;;;;;;4969103;28;20454;-72
2023/02/27 06:10:49;;;;;;;77.53;4.93;;;-2.30;99.90;;;;;;4974843;28;20433;-72
2023/02/27 06:13:18;;;;;;;83.77;6.17;;;-2.30;99.90;;;;;;4958531;28;21026;-70
2023/02/27 06:15:45;;;;;;;81.10;5.50;;;-2.30;99.90;;;;;;4955636;28;20199;-71
2023/02/27 06:18:11;;;;;;;80.47;5.80;;;-2.20;99.90;;;;;;4960695;28;20417;-70
2023/02/27 06:20:38;;;;;;;81.17;5.37;;;-2.20;99.90;;;;;;4974102;28;20478;-72
2023/02/27 06:23:04;;;;;;;80.77;6.07;;;-2.20;99.90;;;;;;4970583;28;20588;-72
2023/02/27 06:25:30;;;;;;;81.17;4.87;;;-2.20;99.90;;;;;;4972269;28;20449;-72
2023/02/27 06:27:55;;;;;;;81.37;5.63;;;-2.20;99.90;;;;;;4969860;28;20490;-71
2023/02/27 06:30:21;;;;;;;85.17;6.43;;;-2.10;99.90;;;;;;4974098;28;20203;-71
2023/02/27 06:32:46;;;;;;;79.27;5.77;;;-2.20;99.90;;;;;;4972102;28;20196;-72
2023/02/27 06:35:12;;;;;;;78.00;4.70;;;-2.20;99.90;;;;;;4974395;28;20207;-72
2023/02/27 06:37:38;;;;;;;77.80;5.20;;;-2.20;99.90;;;;;;4972766;28;20192;-72
2023/02/27 06:40:05;;;;;;;80.97;6.20;;;-2.10;99.90;;;;;;4973241;28;20204;-72
2023/02/27 06:42:31;;;;;;;81.83;4.87;;;-2.10;99.90;;;;;;4972914;28;20695;-71
2023/02/27 06:44:57;;;;;;;81.13;5.87;;;-2.10;99.90;;;;;;4974564;28;20417;-71
2023/02/27 06:47:22;;;;;;;83.77;5.23;;;-2.00;99.90;;;;;;4972197;28;20430;-71
2023/02/27 06:49:48;;;;;;;84.33;5.23;;;-2.00;99.90;;;;;;4966773;28;20271;-71
2023/02/27 06:52:14;;;;;;;79.33;5.67;;;-2.00;99.90;;;;;;4972729;28;20282;-70
2023/02/27 06:54:39;;;;;;;80.03;5.43;;;-1.90;99.90;;;;;;4974286;28;20202;-71
2023/02/27 06:57:05;;;;;;;79.10;5.17;;;-1.90;99.90;;;;;;4973562;28;20268;-71
2023/02/27 06:59:30;;;;;;;75.70;5.10;;;-1.80;99.90;;;;;;4971835;28;20669;-71
2023/02/27 07:01:57;;;;;;;80.50;4.57;;;-1.70;99.90;;;;;;4973130;28;20278;-73
2023/02/27 07:04:23;;;;;;;77.00;4.70;;;-1.60;99.90;;;;;;4974357;28;20262;-72
2023/02/27 07:06:49;;;;;;;77.40;4.93;;;-1.60;99.90;;;;;;4974661;28;20899;-72
2023/02/27 07:09:14;;;;;;;77.80;5.83;;;-1.60;99.90;;;;;;4974126;28;20239;-71
2023/02/27 07:11:40;;;;;;;77.73;5.00;;;-1.40;99.90;;;;;;4965643;28;20772;-72
2023/02/27 07:14:05;;;;;;;76.77;5.20;;;-1.30;99.90;;;;;;4974383;28;20219;-72
2023/02/27 07:16:31;;;;;;;76.13;4.93;;;-1.20;99.90;;;;;;4969523;28;20551;-77
2023/02/27 07:18:58;;;;;;;78.57;5.63;;;-1.10;99.90;;;;;;4977600;28;20546;-71
2023/02/27 07:21:23;;;;;;;84.40;5.17;;;-0.90;99.90;;;;;;4967365;28;20244;-72
2023/02/27 07:23:49;;;;;;;77.40;5.57;;;-0.60;99.90;;;;;;4973649;28;20413;-72
2023/02/27 07:26:14;;;;;;;79.00;4.40;;;-0.20;99.90;;;;;;4968067;28;20193;-71
2023/02/27 07:28:40;;;;;;;78.00;5.43;;;1.00;99.90;;;;;;4973785;28;20193;-73
2023/02/27 07:31:05;;;;;;;86.70;9.10;;;2.60;99.90;;;;;;4971406;28;20230;-72
2023/02/27 07:33:32;;;;;;;77.10;4.50;;;4.20;99.90;;;;;;4973241;28;20204;-72
2023/02/27 07:35:58;;;;;;;73.67;5.10;;;5.40;99.90;;;;;;4967253;28;20210;-71
2023/02/27 07:38:23;;;;;;;193.13;40.43;;;6.30;99.90;;;;;;4972273;28;21285;-70
2023/02/27 07:40:49;;;;;;;80.03;5.93;;;7.10;99.90;;;;;;4959546;28;20221;-72
2023/02/27 07:43:14;;;;;;;1999.90;999.90;;;7.50;99.90;;;;;;4957968;28;20199;-73
2023/02/27 07:45:40;;;;;;;1999.90;999.90;;;8.30;99.90;;;;;;4973246;28;20249;-72
2023/02/27 07:48:06;;;;;;;1999.90;999.90;;;8.00;99.90;;;;;;4967169;28;20605;-71
2023/02/27 07:50:31;;;;;;;1999.90;999.90;;;8.10;99.90;;;;;;4965979;28;20310;-72
2023/02/27 07:52:56;;;;;;;1999.90;999.90;;;8.30;99.90;;;;;;4961282;28;20193;-72
2023/02/27 07:55:22;;;;;;;135.07;38.57;;;8.30;99.90;;;;;;4968741;28;20696;-72
2023/02/27 07:57:47;;;;;;;1377.83;677.13;;;8.50;99.90;;;;;;4965482;28;20197;-72
2023/02/27 08:00:13;;;;;;;142.43;34.20;;;7.60;99.90;;;;;;4969353;28;20225;-72
2023/02/27 08:02:39;;;;;;;125.43;29.10;;;7.00;99.90;;;;;;4971560;28;20208;-71
2023/02/27 08:05:05;;;;;;;123.97;27.20;;;6.30;99.90;;;;;;4967161;28;20557;-70
2023/02/27 08:07:30;;;;;;;124.67;28.30;;;5.70;99.90;;;;;;4967244;28;20185;-71
2023/02/27 08:09:56;;;;;;;121.37;23.60;;;5.30;99.90;;;;;;4956104;28;20521;-72
2023/02/27 08:12:22;;;;;;;119.47;22.50;;;5.40;99.90;;;;;;4959470;28;20262;-71
2023/02/27 08:14:48;;;;;;;121.80;22.10;;;5.20;99.90;;;;;;4970199;28;20203;-72
2023/02/27 08:17:13;;;;;;;121.93;23.03;;;5.20;99.90;;;;;;4969414;28;20430;-71
2023/02/27 08:19:39;;;;;;;121.70;22.60;;;5.30;99.90;;;;;;4963663;28;20191;-72
2023/02/27 08:22:05;;;;;;;120.87;23.37;;;5.30;99.90;;;;;;4967965;28;20226;-73
2023/02/27 08:24:31;;;;;;;121.27;28.33;;;5.50;99.90;;;;;;4971156;28;20423;-72
2023/02/27 08:26:56;;;;;;;118.10;23.80;;;5.30;99.90;;;;;;4969011;28;20234;-72
2023/02/27 08:29:22;;;;;;;120.83;26.17;;;5.10;99.90;;;;;;4962048;28;20203;-73
2023/02/27 08:31:47;;;;;;;115.17;24.00;;;5.30;99.90;;;;;;4970680;28;20283;-73
2023/02/27 08:34:13;;;;;;;114.40;23.47;;;5.50;99.90;;;;;;4968921;28;20202;-73
2023/02/27 08:36:39;;;;;;;122.57;24.50;;;5.80;99.90;;;;;;4967790;28;20278;-71
2023/02/27 08:39:06;;;;;;;115.67;23.70;;;6.20;99.90;;;;;;4972330;28;20470;-72
2023/02/27 08:41:32;;;;;;;116.50;24.87;;;6.20;99.90;;;;;;4968598;28;20226;-71
2023/02/27 08:43:58;;;;;;;115.77;25.60;;;6.30;99.90;;;;;;4968999;28;20476;-72
2023/02/27 08:46:23;;;;;;;118.27;25.60;;;6.50;99.90;;;;;;4969749;28;20482;-72
2023/02/27 08:48:49;;;;;;;117.73;27.33;;;6.20;99.90;;;;;;4970521;28;20195;-72
2023/02/27 08:51:14;;;;;;;114.77;25.03;;;5.80;99.90;;;;;;4964649;28;20228;-74
2023/02/27 08:53:40;;;;;;;117.97;26.63;;;5.80;99.90;;;;;;4968574;28;20617;-72
2023/02/27 08:56:06;;;;;;;122.60;26.60;;;5.80;99.90;;;;;;4967399;28;20204;-72
2023/02/27 08:58:31;;;;;;;120.47;26.80;;;6.00;99.90;;;;;;4969295;28;20216;-71
2023/02/27 09:00:57;;;;;;;115.53;23.87;;;6.40;99.90;;;;;;4966004;28;20475;-72
2023/02/27 09:03:27;;;;;;;132.90;37.57;;;6.30;99.90;;;;;;4971620;28;20557;-71
2023/02/27 09:05:53;;;;;;;115.07;25.87;;;6.10;99.90;;;;;;4965294;28;20190;-72
2023/02/27 09:08:19;;;;;;;116.60;25.37;;;6.40;99.90;;;;;;4971752;28;20810;-72
2023/02/27 09:10:44;;;;;;;114.57;25.33;;;6.50;99.90;;;;;;4963528;28;20437;-73
2023/02/27 09:13:10;;;;;;;110.67;20.07;;;6.70;99.90;;;;;;4957792;28;20198;-72
2023/02/27 09:15:36;;;;;;;113.50;22.93;;;6.50;99.90;;;;;;4954040;28;20196;-72
2023/02/27 09:18:05;;;;;;;108.17;19.43;;;6.00;99.90;;;;;;4962629;28;20182;-72
2023/02/27 09:20:32;;;;;;;108.77;19.30;;;5.80;99.90;;;;;;4969852;28;20812;-73
2023/02/27 09:22:58;;;;;;;108.07;20.87;;;6.00;99.90;;;;;;4969047;28;20440;-72
2023/02/27 09:25:24;;;;;;;115.40;19.57;;;6.40;99.90;;;;;;4967973;28;20434;-71
2023/02/27 09:27:50;;;;;;;112.63;20.60;;;6.20;99.90;;;;;;4955969;28;20813;-72
2023/02/27 09:30:15;;;;;;;108.90;19.80;;;6.40;99.90;;;;;;4968342;28;20432;-72
2023/02/27 09:32:41;;;;;;;107.47;17.57;;;6.80;99.90;;;;;;4971205;28;20322;-73
2023/02/27 09:35:08;;;;;;;107.70;17.23;;;7.20;99.90;;;;;;4968507;28;20584;-73
2023/02/27 09:37:34;;;;;;;103.53;16.67;;;7.20;99.90;;;;;;4965367;28;20188;-72
2023/02/27 09:39:59;;;;;;;105.80;17.07;;;7.50;99.90;;;;;;4963739;28;20441;-73
2023/02/27 09:42:32;;;;;;;243.00;82.23;;;7.60;99.90;;;;;;4971306;28;20223;-72
2023/02/27 09:45:03;;;;;;;116.10;28.70;;;8.10;99.90;;;;;;4966842;28;20197;-75
2023/02/27 09:47:36;;;;;;;115.80;29.67;;;8.20;99.90;;;;;;4965713;28;20528;-72
2023/02/27 09:50:25;;;;;;;109.37;26.40;;;8.20;99.90;;;;;;4954933;28;20447;-71
2023/02/27 09:52:51;;;;;;;153.63;43.43;;;8.60;99.90;;;;;;4957794;28;20439;-73
2023/02/27 09:55:20;;;;;;;113.00;25.90;;;8.20;99.90;;;;;;4964948;28;20809;-73
2023/02/27 09:58:00;;;;;;;114.83;25.43;;;8.10;99.90;;;;;;4964770;28;20196;-71
2023/02/27 10:00:29;;;;;;;115.20;26.10;;;8.00;99.90;;;;;;4969672;28;20464;-73
2023/02/27 10:03:21;;;;;;;116.57;32.40;;;8.00;99.90;;;;;;4968711;28;20464;-73
2023/02/27 10:06:13;;;;;;;111.77;24.13;;;7.40;99.90;;;;;;4952977;28;20791;-72
2023/02/27 10:09:06;;;;;;;119.83;30.83;;;6.30;99.90;;;;;;4948717;28;20495;-71
2023/02/27 10:12:19;;;;;;;115.70;25.30;;;5.30;99.90;;;;;;4946513;28;20464;-72
2023/02/27 10:14:51;;;;;;;113.27;25.33;;;5.70;99.90;;;;;;4949273;28;20526;-73
2023/02/27 10:17:32;;;;;;;111.77;22.50;;;5.50;99.90;;;;;;4951440;28;20470;-72
2023/02/27 10:20:00;;;;;;;120.07;27.77;;;5.40;99.90;;;;;;4950792;28;20443;-72
2023/02/27 10:22:32;;;;;;;122.97;25.27;;;5.10;99.90;;;;;;4953422;28;20475;-73
2023/02/27 10:25:24;;;;;;;117.10;25.67;;;5.00;99.90;;;;;;4949526;28;20540;-73
2023/02/27 10:27:55;;;;;;;116.10;24.13;;;4.70;99.90;;;;;;4951391;28;20458;-72
2023/02/27 10:30:24;;;;;;;120.10;26.00;;;4.70;99.90;;;;;;4952732;28;20494;-71
2023/02/27 10:32:54;;;;;;;118.00;29.27;;;4.70;99.90;;;;;;4951994;28;20810;-71
2023/02/27 10:35:22;;;;;;;117.57;26.23;;;4.70;99.90;;;;;;4951470;28;20564;-71
2023/02/27 10:37:52;;;;;;;118.50;29.20;;;5.00;99.90;;;;;;4950363;28;20414;-73
2023/02/27 10:40:19;;;;;;;119.97;29.67;;;5.50;99.90;;;;;;4966924;28;20457;-72
2023/02/27 10:42:46;;;;;;;117.20;31.37;;;5.50;99.90;;;;;;4973431;28;20920;-73
2023/02/27 10:45:14;;;;;;;121.77;31.70;;;5.30;99.90;;;;;;4963271;28;20439;-72
2023/02/27 10:47:40;;;;;;;128.83;39.97;;;5.20;99.90;;;;;;4962688;28;20443;-71
2023/02/27 10:50:24;;;;;;;139.73;51.40;;;5.30;99.90;;;;;;4954976;28;20455;-71
2023/02/27 10:52:52;;;;;;;141.40;57.30;;;4.90;99.90;;;;;;4957525;28;20435;-71
2023/02/27 10:55:23;;;;;;;146.87;59.40;;;5.00;99.90;;;;;;4967192;28;20448;-71
2023/02/27 10:57:49;;;;;;;1999.90;999.90;;;5.40;99.90;;;;;;4961552;28;20490;-72
2023/02/27 11:00:39;;;;;;;1999.90;999.90;;;6.00;99.90;;;;;;4963149;28;20928;-72
2023/02/27 11:03:05;;;;;;;1999.90;999.90;;;6.40;99.90;;;;;;4962457;28;20204;-72
2023/02/27 11:05:34;;;;;;;1999.90;999.90;;;6.60;99.90;;;;;;4961516;28;20939;-70
2023/02/27 11:08:19;;;;;;;1999.90;999.90;;;6.80;99.90;;;;;;4960623;28;20916;-71
2023/02/27 11:11:08;;;;;;;1999.90;999.90;;;6.70;99.90;;;;;;4959649;28;20461;-72
2023/02/27 11:13:42;;;;;;;1999.90;999.90;;;6.90;99.90;;;;;;4961908;28;20490;-73
2023/02/27 11:16:15;;;;;;;134.67;34.07;;;6.50;99.90;;;;;;4962730;28;20440;-73
2023/02/27 11:18:42;;;;;;;140.67;42.47;;;6.40;99.90;;;;;;4962647;28;20528;-71
2023/02/27 11:21:25;;;;;;;136.37;41.43;;;6.70;99.90;;;;;;4962343;28;20485;-72
2023/02/27 11:24:01;;;;;;;138.90;43.20;;;6.80;99.90;;;;;;4962165;28;20440;-72
2023/02/27 11:26:38;;;;;;;144.13;49.60;;;7.10;99.90;;;;;;4962014;28;21005;-72
2023/02/27 11:29:17;;;;;;;1999.90;999.90;;;7.00;98.40;;;;;;4961196;28;20446;-69
2023/02/27 11:31:44;;;;;;;140.40;49.43;;;7.10;96.40;;;;;;4960865;28;20471;-72
2023/02/27 11:34:20;;;;;;;1999.90;999.90;;;7.50;95.80;;;;;;4962095;28;20423;-72
2023/02/27 11:36:48;;;;;;;1999.90;999.90;;;7.00;96.40;;;;;;4961213;28;20439;-73
2023/02/27 11:39:48;;;;;;;1999.90;999.90;;;6.50;94.80;;;;;;4961835;28;20443;-71
2023/02/27 11:42:31;;;;;;;1999.90;999.90;;;5.90;96.40;;;;;;4945716;28;20494;-71
2023/02/27 11:45:06;;;;;;;1999.90;999.90;;;5.70;96.90;;;;;;4958996;28;21039;-71
2023/02/27 11:47:38;;;;;;;1999.90;999.90;;;5.50;96.60;;;;;;4961669;28;20499;-72
2023/02/27 11:50:20;;;;;;;1999.90;999.90;;;5.50;98.90;;;;;;4960381;28;20461;-71
2023/02/27 11:53:00;;;;;;;1999.90;999.90;;;5.50;99.90;;;;;;4962402;28;20964;-71
2023/02/27 11:55:27;;;;;;;1999.90;999.90;;;5.60;99.90;;;;;;4961512;28;20526;-71
2023/02/27 11:58:03;;;;;;;1999.90;999.90;;;5.70;99.90;;;;;;4961014;28;20814;-72
2023/02/27 12:00:35;;;;;;;1999.90;999.90;;;5.70;99.90;;;;;;4960218;28;20557;-71
2023/02/27 12:03:27;;;;;;;70.07;5.13;;;5.50;99.90;;;;;;4961382;28;20430;-71
2023/02/27 12:05:59;;;;;;;54.70;2.80;;;5.50;99.90;;;;;;4962288;28;20444;-72
2023/02/27 12:08:34;;;;;;;78.27;4.40;;;5.60;99.30;;;;;;4959159;28;20487;-72
2023/02/27 12:11:12;;;;;;;83.17;5.17;;;5.50;97.90;;;;;;4956494;28;20548;-71
2023/02/27 12:13:41;;;;;;;113.20;19.83;;;5.70;99.90;;;;;;4968176;28;20945;-72
2023/02/27 12:16:18;;;;;;;1999.90;999.90;;;5.80;98.60;;;;;;4966409;28;20443;-72
2023/02/27 12:19:03;;;;;;;1999.90;999.90;;;5.90;99.90;;;;;;4968391;28;20443;-71
2023/02/27 12:21:32;;;;;;;1999.90;999.90;;;5.80;99.90;;;;;;4965859;28;20990;-74
2023/02/27 12:24:04;;;;;;;1999.90;999.90;;;5.70;99.90;;;;;;4956577;28;20443;-73
2023/02/27 12:26:44;;;;;;;1999.90;999.90;;;5.80;99.90;;;;;;4972581;28;20807;-70
2023/02/27 12:29:30;;;;;;;1999.90;999.90;;;6.20;99.90;;;;;;4952861;28;20444;-73
2023/02/27 12:32:30;;;;;;;1999.90;999.90;;;6.40;99.90;;;;;;4956385;28;20521;-72
2023/02/27 12:35:14;;;;;;;137.90;56.83;;;6.50;99.90;;;;;;4949113;28;20439;-73
2023/02/27 12:37:39;;;;;;;124.27;35.67;;;6.30;99.90;;;;;;4972079;28;20406;-73
2023/02/27 12:40:07;;;;;;;150.17;71.80;;;6.00;99.90;;;;;;4964639;28;20988;-73
2023/02/27 12:42:57;;;;;;;155.90;81.30;;;5.80;99.90;;;;;;4971769;28;20215;-72
2023/02/27 12:45:28;;;;;;;97.40;10.30;;;5.60;99.90;;;;;;4965642;28;20445;-72
2023/02/27 12:48:12;;;;;;;101.90;10.87;;;5.60;99.90;;;;;;4971979;28;20833;-71
2023/02/27 12:50:47;;;;;;;97.40;10.10;;;5.30;99.90;;;;;;4965628;28;20528;-71
2023/02/27 12:53:22;;;;;;;96.67;10.83;;;5.20;99.90;;;;;;4964915;28;20516;-72
2023/02/27 12:55:57;;;;;;;94.97;10.00;;;5.20;99.90;;;;;;4966903;28;20446;-72
2023/02/27 12:59:07;;;;;;;97.57;9.63;;;5.20;99.90;;;;;;4972537;28;20441;-72
2023/02/27 13:01:47;;;;;;;96.17;9.67;;;4.90;99.90;;;;;;4962247;28;20486;-71
2023/02/27 13:04:42;;;;;;;96.33;10.40;;;4.80;99.90;;;;;;4958192;28;20470;-72
2023/02/27 13:07:25;;;;;;;97.00;9.80;;;4.80;99.90;;;;;;4957648;28;20986;-72
2023/02/27 13:10:01;;;;;;;97.40;10.60;;;4.60;99.90;;;;;;4957607;28;20434;-72
2023/02/27 13:12:40;;;;;;;772.83;384.40;;;4.40;99.90;;;;;;4971305;28;21145;-73
2023/02/27 13:15:25;;;;;;;92.97;8.30;;;4.30;99.90;;;;;;4960432;28;20805;-72
2023/02/27 13:18:00;;;;;;;1377.40;682.63;;;4.30;99.90;;;;;;4969428;28;20539;-69
2023/02/27 13:20:33;;;;;;;84.93;8.07;;;4.30;99.90;;;;;;4964013;28;20814;-71
2023/02/27 13:23:28;;;;;;;70.53;3.90;;;4.40;99.90;;;;;;4953523;28;20955;-71
2023/02/27 13:25:55;;;;;;;70.47;3.60;;;4.30;99.90;;;;;;4970565;28;21551;-72
2023/02/27 13:28:26;;;;;;;69.07;3.10;;;4.40;99.90;;;;;;4969523;28;20424;-72
2023/02/27 13:31:08;;;;;;;72.07;3.93;;;4.30;99.90;;;;;;4971011;28;20445;-72
2023/02/27 13:33:44;;;;;;;87.47;6.97;;;4.30;99.90;;;;;;4962429;28;20438;-71
2023/02/27 13:36:32;;;;;;;89.90;8.30;;;4.30;99.90;;;;;;4966541;28;20420;-73
2023/02/27 13:38:57;;;;;;;89.77;8.03;;;4.30;99.90;;;;;;4968683;28;20406;-72
2023/02/27 13:41:23;;;;;;;78.10;5.37;;;4.40;99.90;;;;;;4971546;28;20525;-73
2023/02/27 13:43:53;;;;;;;77.67;5.40;;;4.60;99.90;;;;;;4951536;28;20183;-72
2023/02/27 13:46:23;;;;;;;88.40;7.20;;;4.60;99.90;;;;;;4965744;28;20241;-72
2023/02/27 13:48:53;;;;;;;82.20;6.17;;;4.40;99.90;;;;;;4962731;28;20472;-72
2023/02/27 13:51:34;;;;;;;87.63;7.60;;;4.40;99.90;;;;;;4971662;28;20511;-72
2023/02/27 13:54:15;;;;;;;90.60;8.70;;;4.30;99.90;;;;;;4963944;28;20422;-72
2023/02/27 13:57:06;;;;;;;91.10;8.47;;;4.20;99.90;;;;;;4971007;28;20433;-71
2023/02/27 13:59:35;;;;;;;88.47;7.93;;;4.20;99.90;;;;;;4963989;28;20487;-72
2023/02/27 14:02:10;;;;;;;93.67;9.20;;;4.10;99.90;;;;;;4954042;28;20477;-72
2023/02/27 14:04:44;;;;;;;90.90;8.63;;;4.00;99.90;;;;;;4965123;28;20935;-71
2023/02/27 14:07:20;;;;;;;91.30;9.20;;;4.00;99.90;;;;;;4955442;28;20590;-72
2023/02/27 14:09:49;;;;;;;111.63;10.40;;;3.80;99.90;;;;;;4970782;28;20509;-72
2023/02/27 14:12:34;;;;;;;78.33;4.93;;;3.70;99.90;;;;;;4964718;28;21805;-72
2023/02/27 14:15:03;;;;;;;88.93;6.40;;;3.60;99.90;;;;;;4955996;28;20533;-71
2023/02/27 14:17:35;;;;;;;87.87;6.50;;;3.70;99.90;;;;;;4957460;28;20406;-72
2023/02/27 14:20:12;;;;;;;88.40;7.77;;;3.90;99.90;;;;;;4966970;28;20575;-73
2023/02/27 14:22:42;;;;;;;90.83;7.37;;;4.00;99.90;;;;;;4974498;28;20437;-72
2023/02/27 14:25:17;;;;;;;88.47;7.07;;;4.20;99.90;;;;;;4971482;28;20571;-72
2023/02/27 14:27:42;;;;;;;90.87;9.43;;;4.30;99.90;;;;;;4973059;28;20971;-73